createdAt,value
2019-03-25T00:01:50.724Z,61.19
2019-03-25T00:05:14.931Z,62.24
2019-03-25T00:08:38.827Z,61.94
2019-03-25T00:12:02.880Z,62.05
2019-03-25T00:15:26.792Z,61.51
2019-03-25T00:18:50.853Z,62.12
2019-03-25T00:22:14.816Z,61.98
2019-03-25T00:25:38.977Z,62.54
2019-03-25T00:29:02.884Z,61.77
2019-03-25T00:32:26.798Z,61.35
2019-03-25T00:35:50.752Z,62.53
2019-03-25T00:39:15.005Z,63.16
2019-03-25T00:42:39.046Z,63.22
2019-03-25T00:46:02.953Z,63.04
2019-03-25T00:49:26.879Z,63.37
2019-03-25T00:52:50.863Z,62.61
2019-03-25T00:56:14.766Z,62.90
2019-03-25T00:59:39.167Z,62.99
2019-03-25T01:03:03.215Z,62.60
2019-03-25T01:06:27.115Z,62.42
2019-03-25T01:09:51.166Z,62.65
2019-03-25T01:13:15.154Z,63.91
2019-03-25T01:16:39.172Z,62.43
2019-03-25T01:20:03.198Z,61.94
2019-03-25T01:23:27.503Z,61.75
2019-03-25T01:26:51.401Z,61.66
2019-03-25T01:30:15.373Z,61.62
2019-03-25T01:33:39.292Z,61.24
2019-03-25T01:37:03.152Z,61.13
2019-03-25T01:40:27.076Z,61.05
2019-03-25T01:43:51.280Z,60.43
2019-03-25T01:47:15.198Z,61.00
2019-03-25T01:50:39.198Z,61.96
2019-03-25T01:54:03.094Z,62.37
2019-03-25T01:57:27.013Z,61.92
2019-03-25T02:00:51.019Z,61.13
2019-03-25T02:04:14.890Z,61.33
2019-03-25T02:07:38.869Z,61.02
2019-03-25T02:11:02.794Z,60.86
2019-03-25T02:14:26.746Z,60.39
2019-03-25T02:17:50.680Z,60.41
2019-03-25T02:21:14.583Z,60.18
2019-03-25T02:24:38.594Z,60.34
2019-03-25T02:28:02.473Z,60.40
2019-03-25T02:31:26.387Z,60.25
2019-03-25T02:34:50.572Z,60.18
2019-03-25T02:38:14.522Z,60.26
2019-03-25T02:41:38.522Z,60.82
2019-03-25T02:45:02.467Z,61.16
2019-03-25T02:48:26.470Z,61.17
2019-03-25T02:51:50.491Z,61.77
2019-03-25T02:55:14.403Z,61.42
2019-03-25T02:59:48.124Z,61.30
2019-03-25T03:08:13.997Z,61.67
2019-03-25T03:11:38.241Z,62.58
2019-03-25T03:15:02.183Z,62.97
2019-03-25T03:18:26.105Z,62.87
2019-03-25T03:21:50.040Z,62.44
2019-03-25T03:25:13.949Z,63.59
2019-03-25T03:28:37.852Z,62.99
2019-03-25T03:32:01.760Z,62.48
2019-03-25T03:35:25.674Z,63.34
2019-03-25T03:38:49.576Z,62.55
2019-03-25T03:42:13.477Z,64.56
2019-03-25T03:45:37.436Z,63.17
2019-03-25T03:49:01.326Z,64.45
2019-03-25T03:52:25.310Z,63.87
2019-03-25T03:55:50.612Z,64.17
2019-03-25T03:59:14.504Z,64.18
2019-03-25T04:02:38.394Z,64.50
2019-03-25T04:06:02.303Z,65.02
2019-03-25T04:09:26.237Z,65.52
2019-03-25T04:12:50.198Z,64.86
2019-03-25T04:16:14.114Z,64.79
2019-03-25T04:19:38.613Z,64.97
2019-03-25T04:23:02.571Z,64.90
2019-03-25T04:26:28.825Z,64.83
2019-03-25T04:29:52.288Z,64.24
2019-03-25T04:33:16.249Z,64.99
2019-03-25T04:36:40.558Z,65.08
2019-03-25T04:40:04.831Z,64.93
2019-03-25T04:43:28.738Z,65.74
2019-03-25T04:46:52.627Z,65.25
2019-03-25T04:50:16.552Z,65.30
2019-03-25T04:53:40.775Z,65.91
2019-03-25T04:57:04.661Z,66.08
2019-03-25T05:00:36.577Z,65.69
2019-03-25T05:04:00.476Z,66.16
2019-03-25T05:07:24.354Z,66.87
2019-03-25T05:10:48.295Z,66.19
2019-03-25T05:14:12.307Z,67.14
2019-03-25T05:17:36.263Z,67.61
2019-03-25T05:21:00.207Z,68.22
2019-03-25T05:24:24.080Z,69.33
2019-03-25T05:27:47.965Z,68.78
2019-03-25T05:31:11.908Z,68.49
2019-03-25T05:34:35.761Z,67.79
2019-03-25T05:38:00.661Z,67.15
2019-03-25T05:41:24.587Z,67.32
2019-03-25T05:44:48.518Z,68.03
2019-03-25T05:48:12.391Z,67.56
2019-03-25T05:51:36.716Z,68.61
2019-03-25T05:55:01.144Z,68.83
2019-03-25T05:58:25.164Z,69.82
2019-03-25T06:01:49.265Z,70.04
2019-03-25T06:05:13.319Z,71.25
2019-03-25T06:08:37.690Z,71.40
2019-03-25T06:12:01.590Z,70.57
2019-03-25T06:15:25.812Z,70.07
2019-03-25T06:18:49.676Z,69.03
2019-03-25T06:22:13.605Z,69.47
2019-03-25T06:25:37.617Z,69.69
2019-03-25T06:29:01.586Z,69.25
2019-03-25T06:32:25.943Z,68.62
2019-03-25T06:35:50.129Z,69.08
2019-03-25T06:39:14.347Z,69.61
2019-03-25T06:42:38.268Z,69.00
2019-03-25T06:46:02.195Z,69.46
2019-03-25T06:49:26.078Z,67.66
2019-03-25T06:52:50.157Z,67.60
2019-03-25T06:56:14.709Z,66.39
2019-03-25T06:59:38.741Z,65.25
2019-03-25T07:03:02.652Z,64.94
2019-03-25T07:06:26.677Z,64.08
2019-03-25T07:09:50.572Z,64.16
2019-03-25T07:13:15.063Z,62.85
2019-03-25T07:16:39.007Z,64.42
2019-03-25T07:20:03.381Z,64.84
2019-03-25T07:23:27.407Z,64.66
2019-03-25T07:26:51.404Z,65.12
2019-03-25T07:30:15.442Z,64.28
2019-03-25T07:33:39.372Z,64.12
2019-03-25T07:37:03.507Z,63.56
2019-03-25T07:40:27.544Z,63.85
2019-03-25T07:43:51.782Z,62.85
2019-03-25T07:47:15.698Z,63.35
2019-03-25T07:50:39.703Z,62.44
2019-03-25T07:54:03.695Z,61.70
2019-03-25T07:57:27.652Z,61.31
2019-03-25T08:00:51.691Z,60.54
2019-03-25T08:04:15.737Z,60.40
2019-03-25T08:07:39.651Z,59.12
2019-03-25T08:11:03.670Z,57.58
2019-03-25T08:14:27.550Z,58.38
2019-03-25T08:17:51.775Z,60.19
2019-03-25T08:21:15.674Z,61.33
2019-03-25T08:24:39.623Z,60.73
2019-03-25T08:28:03.550Z,60.72
2019-03-25T08:31:27.893Z,64.37
2019-03-25T08:34:52.292Z,66.27
2019-03-25T08:38:16.239Z,68.08
2019-03-25T08:41:40.503Z,67.81
2019-03-25T08:45:05.452Z,69.41
2019-03-25T08:48:30.693Z,68.10
2019-03-25T08:51:54.770Z,67.82
2019-03-25T08:55:18.717Z,67.28
2019-03-25T08:58:42.883Z,66.24
2019-03-25T09:02:06.852Z,63.13
2019-03-25T09:05:30.815Z,62.44
2019-03-25T09:08:54.941Z,60.31
2019-03-25T09:12:18.891Z,60.60
2019-03-25T09:15:42.819Z,60.59
2019-03-25T09:19:06.785Z,58.76
2019-03-25T09:22:30.748Z,59.45
2019-03-25T09:25:54.712Z,58.60
2019-03-25T09:29:18.618Z,60.43
2019-03-25T09:32:42.986Z,60.47
2019-03-25T09:36:07.070Z,58.50
2019-03-25T09:39:30.979Z,60.74
2019-03-25T09:42:54.903Z,59.04
2019-03-25T09:46:19.320Z,59.72
2019-03-25T09:49:43.249Z,57.55
2019-03-25T09:53:07.259Z,55.42
2019-03-25T09:56:31.552Z,55.00
2019-03-25T09:59:55.478Z,51.70
2019-03-25T10:03:19.424Z,50.21
2019-03-25T10:06:44.509Z,49.89
2019-03-25T10:10:09.037Z,56.51
2019-03-25T10:13:33.334Z,69.32
2019-03-25T10:16:57.317Z,72.77
2019-03-25T10:20:21.253Z,71.28
2019-03-25T10:23:45.212Z,65.21
2019-03-25T10:27:09.247Z,63.06
2019-03-25T10:30:33.184Z,57.20
2019-03-25T10:33:57.266Z,53.70
2019-03-25T10:37:21.298Z,49.74
2019-03-25T10:40:45.256Z,50.10
2019-03-25T10:44:09.194Z,48.39
2019-03-25T10:47:33.152Z,44.86
2019-03-25T10:50:58.114Z,45.63
2019-03-25T10:54:22.644Z,45.88
2019-03-25T10:57:46.631Z,42.88
2019-03-25T11:01:10.780Z,43.36
2019-03-25T11:04:34.839Z,40.87
2019-03-25T11:07:58.869Z,43.08
2019-03-25T11:11:23.060Z,40.75
2019-03-25T11:14:47.044Z,46.27
2019-03-25T11:18:11.238Z,57.98
2019-03-25T11:21:35.243Z,67.35
2019-03-25T11:24:59.146Z,70.60
2019-03-25T11:28:24.070Z,72.10
2019-03-25T11:31:47.979Z,61.88
2019-03-25T11:35:13.714Z,60.28
2019-03-25T11:38:37.559Z,56.70
2019-03-25T11:42:01.588Z,51.43
2019-03-25T11:45:25.733Z,50.57
2019-03-25T11:48:49.714Z,49.21
2019-03-25T11:52:13.639Z,46.50
2019-03-25T11:55:37.550Z,43.35
2019-03-25T11:59:02.954Z,44.53
2019-03-25T12:02:27.209Z,43.18
2019-03-25T12:05:51.131Z,46.51
2019-03-25T12:09:15.144Z,48.80
2019-03-25T12:12:39.150Z,45.90
2019-03-25T12:16:03.208Z,46.73
2019-03-25T12:19:27.119Z,48.50
2019-03-25T12:22:51.077Z,47.59
2019-03-25T12:26:15.266Z,46.33
2019-03-25T12:29:39.203Z,44.52
2019-03-25T12:33:04.339Z,44.15
2019-03-25T12:36:28.495Z,43.19
2019-03-25T12:39:52.693Z,41.11
2019-03-25T12:43:16.936Z,42.30
2019-03-25T12:46:41.000Z,42.58
2019-03-25T12:50:05.931Z,40.32
2019-03-25T12:53:29.884Z,42.17
2019-03-25T12:56:53.958Z,40.73
2019-03-25T13:00:34.779Z,36.79
2019-03-25T13:03:58.858Z,37.48
2019-03-25T13:07:22.813Z,39.60
2019-03-25T13:10:47.319Z,42.63
2019-03-25T13:14:11.382Z,43.00
2019-03-25T13:17:35.429Z,46.43
2019-03-25T13:20:59.422Z,44.13
2019-03-25T13:24:23.310Z,45.88
2019-03-25T13:27:47.480Z,51.69
2019-03-25T13:31:11.474Z,54.16
2019-03-25T13:34:35.373Z,60.28
2019-03-25T13:38:00.377Z,66.40
2019-03-25T13:41:24.681Z,68.88
2019-03-25T13:44:48.579Z,75.36
2019-03-25T13:48:12.481Z,76.89
2019-03-25T13:51:36.404Z,75.56
2019-03-25T13:55:00.447Z,73.96
2019-03-25T13:58:24.511Z,72.10
2019-03-25T14:01:48.571Z,73.18
2019-03-25T14:05:12.675Z,74.32
2019-03-25T14:08:36.615Z,74.50
2019-03-25T14:12:00.712Z,74.39
2019-03-25T14:15:24.670Z,75.81
2019-03-25T14:18:48.538Z,76.70
2019-03-25T14:22:13.936Z,77.04
2019-03-25T14:25:38.019Z,75.14
2019-03-25T14:29:02.084Z,74.17
2019-03-25T14:32:26.020Z,74.43
2019-03-25T14:35:50.099Z,67.79
2019-03-25T14:39:14.173Z,61.65
2019-03-25T14:42:41.049Z,58.75
2019-03-25T14:46:05.313Z,54.27
2019-03-25T14:49:31.214Z,55.56
2019-03-25T14:52:55.889Z,57.79
2019-03-25T14:56:20.482Z,61.75
2019-03-25T14:59:47.464Z,63.52
2019-03-25T15:03:12.174Z,62.70
2019-03-25T15:06:36.415Z,55.07
2019-03-25T15:10:00.366Z,50.87
2019-03-25T15:13:24.366Z,49.01
2019-03-25T15:16:48.450Z,42.31
2019-03-25T15:20:15.585Z,42.68
2019-03-25T15:23:39.650Z,42.17
2019-03-25T15:27:03.773Z,41.15
2019-03-25T15:30:35.459Z,37.48
2019-03-25T15:33:54.068Z,39.25
2019-03-25T15:37:17.970Z,38.40
2019-03-25T15:40:42.040Z,41.17
2019-03-25T15:44:06.444Z,44.55
2019-03-25T15:47:30.422Z,48.25
2019-03-25T15:50:54.412Z,48.15
2019-03-25T15:54:18.737Z,51.02
2019-03-25T15:57:42.742Z,54.68
2019-03-25T16:01:06.659Z,56.17
2019-03-25T16:04:30.643Z,54.44
2019-03-25T16:07:55.060Z,51.45
2019-03-25T16:11:19.054Z,49.83
2019-03-25T16:14:43.065Z,53.33
2019-03-25T16:18:07.759Z,51.34
2019-03-25T16:21:31.810Z,54.32
2019-03-25T16:24:56.159Z,55.30
2019-03-25T16:28:20.054Z,55.24
2019-03-25T16:31:44.314Z,57.44
2019-03-25T16:35:08.527Z,57.60
2019-03-25T16:38:33.603Z,58.71
2019-03-25T16:41:57.611Z,57.51
2019-03-25T16:45:23.759Z,55.93
2019-03-25T16:48:48.600Z,54.67
2019-03-25T16:52:12.612Z,55.48
2019-03-25T16:55:36.489Z,53.33
2019-03-25T16:59:00.376Z,54.32
2019-03-25T17:02:24.702Z,53.46
2019-03-25T17:05:49.000Z,52.24
2019-03-25T17:09:13.267Z,52.99
2019-03-25T17:12:37.795Z,51.75
2019-03-25T17:16:01.800Z,52.30
2019-03-25T17:19:25.713Z,52.83
2019-03-25T17:22:49.637Z,52.88
2019-03-25T17:26:13.663Z,53.24
2019-03-25T17:29:38.894Z,53.00
2019-03-25T17:33:02.721Z,54.15
2019-03-25T17:36:27.251Z,54.74
2019-03-25T17:39:51.296Z,54.27
2019-03-25T17:43:15.251Z,55.40
2019-03-25T17:46:39.726Z,54.53
2019-03-25T17:50:04.828Z,55.19
2019-03-25T17:53:29.261Z,55.47
2019-03-25T17:56:53.368Z,55.37
2019-03-25T18:01:15.086Z,56.15
2019-03-25T18:04:39.147Z,54.98
2019-03-25T18:08:03.286Z,55.29
2019-03-25T18:11:27.788Z,56.16
2019-03-25T18:14:51.800Z,57.98
2019-03-25T18:18:15.705Z,56.73
2019-03-25T18:21:39.601Z,56.01
2019-03-25T18:25:03.697Z,55.71
2019-03-25T18:28:27.668Z,54.78
2019-03-25T18:31:51.623Z,55.52
2019-03-25T18:35:23.332Z,55.71
2019-03-25T18:38:47.303Z,54.91
2019-03-25T18:42:11.575Z,56.99
2019-03-25T18:45:35.538Z,57.16
2019-03-25T18:48:59.421Z,57.11
2019-03-25T18:52:23.395Z,59.16
2019-03-25T18:55:47.558Z,57.43
2019-03-25T18:59:12.182Z,56.20
2019-03-25T19:02:36.466Z,58.39
2019-03-25T19:06:00.397Z,58.82
2019-03-25T19:09:24.436Z,57.55
2019-03-25T19:12:48.584Z,58.33
2019-03-25T19:16:12.503Z,57.55
2019-03-25T19:19:36.780Z,59.17
2019-03-25T19:23:00.932Z,58.48
2019-03-25T19:26:24.904Z,58.28
2019-03-25T19:29:49.879Z,59.07
2019-03-25T19:33:14.595Z,58.91
2019-03-25T19:36:38.804Z,58.52
2019-03-25T19:40:03.012Z,58.94
2019-03-25T19:43:27.045Z,59.84
2019-03-25T19:46:51.216Z,60.50
2019-03-25T19:50:16.988Z,61.04
2019-03-25T19:53:41.126Z,60.98
2019-03-25T19:57:05.160Z,60.79
2019-03-25T20:01:19.153Z,60.86
2019-03-25T20:04:43.099Z,61.10
2019-03-25T20:08:08.311Z,61.87
2019-03-25T20:11:33.439Z,61.19
2019-03-25T20:14:57.496Z,61.91
2019-03-25T20:18:21.954Z,61.42
2019-03-25T20:21:47.356Z,62.61
2019-03-25T20:25:11.825Z,62.02
2019-03-25T20:28:38.617Z,62.20
2019-03-25T20:32:03.919Z,61.89
2019-03-25T20:35:31.186Z,62.33
2019-03-25T20:38:56.174Z,62.03
2019-03-25T20:42:22.635Z,60.77
2019-03-25T20:45:46.655Z,61.60
2019-03-25T20:49:10.958Z,61.72
2019-03-25T20:52:37.584Z,61.14
2019-03-25T20:56:05.124Z,60.81
2019-03-25T20:59:29.326Z,61.21
2019-03-25T21:02:53.434Z,60.73
2019-03-25T21:06:18.276Z,61.92
2019-03-25T21:09:44.405Z,61.95
2019-03-25T21:13:08.533Z,62.07
2019-03-25T21:16:32.672Z,63.00
2019-03-25T21:19:57.616Z,62.97
2019-03-25T21:23:21.559Z,62.35
2019-03-25T21:26:45.708Z,62.27
2019-03-25T21:30:10.272Z,64.07
2019-03-25T21:33:34.442Z,63.34
2019-03-25T21:36:58.574Z,63.69
2019-03-25T21:40:22.861Z,63.92
2019-03-25T21:43:46.976Z,63.90
2019-03-25T21:47:11.042Z,63.70
2019-03-25T21:50:35.118Z,63.99
2019-03-25T21:53:59.148Z,64.09
2019-03-25T21:57:23.177Z,63.64
2019-03-25T22:00:48.212Z,63.99
2019-03-25T22:04:12.639Z,64.53
2019-03-25T22:07:36.672Z,63.99
2019-03-25T22:11:01.018Z,63.52
2019-03-25T22:14:25.351Z,63.80
2019-03-25T22:17:49.301Z,63.47
2019-03-25T22:21:13.358Z,64.51
2019-03-25T22:24:37.301Z,64.42
2019-03-25T22:28:01.220Z,63.75
2019-03-25T22:31:26.063Z,64.32
2019-03-25T22:34:50.136Z,63.77
2019-03-25T22:38:14.131Z,63.73
2019-03-25T22:41:38.057Z,65.31
2019-03-25T22:45:02.054Z,65.61
2019-03-25T22:48:27.091Z,64.84
2019-03-25T22:51:51.067Z,64.36
2019-03-25T22:55:15.126Z,64.71
2019-03-25T22:58:39.375Z,63.80
2019-03-25T23:02:03.666Z,63.94
2019-03-25T23:05:27.796Z,64.38
2019-03-25T23:08:51.755Z,64.77
2019-03-25T23:12:15.863Z,64.83
2019-03-25T23:15:39.829Z,64.40
2019-03-25T23:19:03.770Z,64.17
2019-03-25T23:22:27.790Z,63.93
2019-03-25T23:25:52.801Z,63.47
2019-03-25T23:29:17.955Z,63.59
2019-03-25T23:32:42.087Z,63.70
2019-03-25T23:36:06.172Z,64.16
2019-03-25T23:39:30.159Z,64.00
2019-03-25T23:42:54.267Z,64.01
2019-03-25T23:46:18.382Z,64.06
2019-03-25T23:49:42.546Z,62.40
2019-03-25T23:53:06.521Z,63.40
2019-03-25T23:56:30.566Z,63.04
2019-03-25T23:59:54.663Z,63.66
